Cedar Park, Texas
Current Conditions -  °F | °C
As of 3:55 PM on Saturday 25 Oct 2014 (Local Time) from KRYW Reporting Station
Clear Clear  
Wind Chill: 86°   Ceiling: Unl
Heat Index: 86°   Visibility: 10mi
Dew Point: 56°   Wind: 6mph
Humidity: 36%   Direction: 190°S
Pressure: 30.12"   Gusts: NA
Location:  30.51°N, 97.82°W
Report Text: KRYW 252055Z AUTO 19005KT 10SM CLR 30/13 A3012 RMK AO2 T02990132
Loading
Personal Weather Stations






























Interactive Weather Map
Tropical Storm Tracking
New forecast layout! Learn more

10-Day Weather Forecast

Advertisements
Track Severe Weather on mobile